CCH weather

El Pacífico Airport
Cartagena Del Chiara, Caquetá Department, Colombia

Public forecast

Using degrees Celsius for public forecast. Weather courtesy of forecast.io.

Closest aviation weather report (METAR) to El Pacífico Airport

Report is more than 6 hours old.

Closest report is Gustavo Artunduaga Paredes Airport, 45.8 nm (84.8 km) WNW. Retrieved 2019/09/14 18:00 UTC (1 month ago):

SKFL 141800Z 00000KT 7000 VCSH BKN015 27/24 A3001 RMK VCSH/N

Closest aviation forecast (TAF) to El Pacífico Airport

Forecast is more than 12 hours old.

Closest forecast is Nueva Loja Airport, 143.2 nm (265.2 km) WSW. Retrieved 2018/09/09 12:03 UTC (1 year ago):

TAF TAF SCDA 091040Z 0912/1012 19004KT 9999 OVC020 TX18/0917Z TN16/1006ZLVA0571 091200 GG EBBRYZYX EBBRYZYZ EGGYYBYA KMKMYTYX KWBCYMYX MPLBYFYX MPTOYMYX 091200 SEQUYZYX SAEQ01 SEQU 091200 RRB METAR SENL 091200Z 36002KT 9999 SCT030 BKN100 22/21 Q1013 RMK A2994